sensor_id;sensor_type;location;lat;lon;timestamp;temperature;humidity
21502;DHT22;27639;48.674;9.242;2023-05-10T00:01:06;18.10;70.70
21502;DHT22;27639;48.674;9.242;2023-05-10T00:03:31;18.10;70.60
21502;DHT22;27639;48.674;9.242;2023-05-10T00:05:57;18.20;70.60
21502;DHT22;27639;48.674;9.242;2023-05-10T00:08:23;18.20;70.60
21502;DHT22;27639;48.674;9.242;2023-05-10T00:10:49;18.20;70.40
21502;DHT22;27639;48.674;9.242;2023-05-10T00:13:14;18.20;70.40
21502;DHT22;27639;48.674;9.242;2023-05-10T00:15:40;18.20;70.40
21502;DHT22;27639;48.674;9.242;2023-05-10T00:18:06;18.20;70.30
21502;DHT22;27639;48.674;9.242;2023-05-10T00:20:32;18.20;70.30
21502;DHT22;27639;48.674;9.242;2023-05-10T00:22:57;18.20;70.30
21502;DHT22;27639;48.674;9.242;2023-05-10T00:25:23;18.20;70.30
21502;DHT22;27639;48.674;9.242;2023-05-10T00:27:49;18.20;70.30
21502;DHT22;27639;48.674;9.242;2023-05-10T00:30:15;18.20;70.30
21502;DHT22;27639;48.674;9.242;2023-05-10T00:32:40;18.20;70.20
21502;DHT22;27639;48.674;9.242;2023-05-10T00:35:06;18.20;70.20
21502;DHT22;27639;48.674;9.242;2023-05-10T00:37:32;18.20;70.10
21502;DHT22;27639;48.674;9.242;2023-05-10T00:39:57;18.10;69.90
21502;DHT22;27639;48.674;9.242;2023-05-10T00:42:23;18.10;69.90
21502;DHT22;27639;48.674;9.242;2023-05-10T00:44:48;18.00;69.60
21502;DHT22;27639;48.674;9.242;2023-05-10T00:47:15;18.00;69.50
21502;DHT22;27639;48.674;9.242;2023-05-10T00:49:41;18.00;69.60
21502;DHT22;27639;48.674;9.242;2023-05-10T00:52:07;18.00;69.40
21502;DHT22;27639;48.674;9.242;2023-05-10T00:54:33;18.00;69.30
21502;DHT22;27639;48.674;9.242;2023-05-10T00:56:59;17.90;69.10
21502;DHT22;27639;48.674;9.242;2023-05-10T00:59:24;17.90;68.90
21502;DHT22;27639;48.674;9.242;2023-05-10T01:01:50;17.80;68.80
21502;DHT22;27639;48.674;9.242;2023-05-10T01:04:17;17.80;68.80
21502;DHT22;27639;48.674;9.242;2023-05-10T01:06:43;17.70;68.50
21502;DHT22;27639;48.674;9.242;2023-05-10T01:09:09;17.70;68.50
21502;DHT22;27639;48.674;9.242;2023-05-10T01:11:35;17.70;68.50
21502;DHT22;27639;48.674;9.242;2023-05-10T01:14:02;17.70;68.60
21502;DHT22;27639;48.674;9.242;2023-05-10T01:16:30;17.60;68.50
21502;DHT22;27639;48.674;9.242;2023-05-10T01:18:57;17.60;68.50
21502;DHT22;27639;48.674;9.242;2023-05-10T01:24:38;17.60;68.40
21502;DHT22;27639;48.674;9.242;2023-05-10T01:37:58;17.50;68.30
21502;DHT22;27639;48.674;9.242;2023-05-10T01:40:37;17.50;68.40
21502;DHT22;27639;48.674;9.242;2023-05-10T01:43:07;17.40;68.30
21502;DHT22;27639;48.674;9.242;2023-05-10T01:45:38;17.40;68.60
21502;DHT22;27639;48.674;9.242;2023-05-10T01:48:09;17.40;68.60
21502;DHT22;27639;48.674;9.242;2023-05-10T01:50:37;17.50;68.70
21502;DHT22;27639;48.674;9.242;2023-05-10T01:53:07;17.50;68.70
21502;DHT22;27639;48.674;9.242;2023-05-10T01:55:36;17.50;68.70
21502;DHT22;27639;48.674;9.242;2023-05-10T01:58:09;17.50;68.70
21502;DHT22;27639;48.674;9.242;2023-05-10T02:00:35;17.50;68.70
21502;DHT22;27639;48.674;9.242;2023-05-10T02:03:05;17.40;68.70
21502;DHT22;27639;48.674;9.242;2023-05-10T02:05:33;17.50;68.70
21502;DHT22;27639;48.674;9.242;2023-05-10T02:07:59;17.50;68.80
21502;DHT22;27639;48.674;9.242;2023-05-10T02:10:27;17.50;68.90
21502;DHT22;27639;48.674;9.242;2023-05-10T02:12:54;17.50;69.00
21502;DHT22;27639;48.674;9.242;2023-05-10T02:15:23;17.50;68.90
21502;DHT22;27639;48.674;9.242;2023-05-10T02:17:49;17.50;68.80
21502;DHT22;27639;48.674;9.242;2023-05-10T02:20:16;17.60;68.90
21502;DHT22;27639;48.674;9.242;2023-05-10T02:22:42;17.60;68.80
21502;DHT22;27639;48.674;9.242;2023-05-10T02:25:08;17.60;68.80
21502;DHT22;27639;48.674;9.242;2023-05-10T02:27:36;17.50;68.70
21502;DHT22;27639;48.674;9.242;2023-05-10T02:30:02;17.50;68.50
21502;DHT22;27639;48.674;9.242;2023-05-10T02:32:29;17.40;68.50
21502;DHT22;27639;48.674;9.242;2023-05-10T02:34:55;17.40;68.50
21502;DHT22;27639;48.674;9.242;2023-05-10T02:37:22;17.40;68.50
21502;DHT22;27639;48.674;9.242;2023-05-10T02:39:53;17.30;68.30
21502;DHT22;27639;48.674;9.242;2023-05-10T02:42:22;17.30;68.30
21502;DHT22;27639;48.674;9.242;2023-05-10T02:44:50;17.30;68.30
21502;DHT22;27639;48.674;9.242;2023-05-10T02:47:18;17.30;68.40
21502;DHT22;27639;48.674;9.242;2023-05-10T02:49:44;17.20;68.40
21502;DHT22;27639;48.674;9.242;2023-05-10T02:52:10;17.20;68.40
21502;DHT22;27639;48.674;9.242;2023-05-10T02:54:43;17.20;68.40
21502;DHT22;27639;48.674;9.242;2023-05-10T02:57:13;17.20;68.40
21502;DHT22;27639;48.674;9.242;2023-05-10T02:59:40;17.20;68.40
21502;DHT22;27639;48.674;9.242;2023-05-10T03:02:08;17.20;68.40
21502;DHT22;27639;48.674;9.242;2023-05-10T03:04:34;17.30;68.50
21502;DHT22;27639;48.674;9.242;2023-05-10T03:07:00;17.30;68.50
21502;DHT22;27639;48.674;9.242;2023-05-10T03:09:26;17.30;68.50
21502;DHT22;27639;48.674;9.242;2023-05-10T03:14:34;17.30;69.20
21502;DHT22;27639;48.674;9.242;2023-05-10T03:19:54;17.20;68.10
21502;DHT22;27639;48.674;9.242;2023-05-10T03:22:37;17.20;68.30
21502;DHT22;27639;48.674;9.242;2023-05-10T03:25:06;17.20;68.10
21502;DHT22;27639;48.674;9.242;2023-05-10T03:27:32;17.20;68.20
21502;DHT22;27639;48.674;9.242;2023-05-10T03:29:59;17.20;68.20
21502;DHT22;27639;48.674;9.242;2023-05-10T03:32:28;17.20;68.20
21502;DHT22;27639;48.674;9.242;2023-05-10T03:34:54;17.30;68.10
21502;DHT22;27639;48.674;9.242;2023-05-10T03:37:20;17.30;68.10
21502;DHT22;27639;48.674;9.242;2023-05-10T03:39:45;17.30;68.20
21502;DHT22;27639;48.674;9.242;2023-05-10T03:42:11;17.20;68.10
21502;DHT22;27639;48.674;9.242;2023-05-10T03:44:40;17.30;68.50
21502;DHT22;27639;48.674;9.242;2023-05-10T03:47:06;17.20;68.50
21502;DHT22;27639;48.674;9.242;2023-05-10T03:49:31;17.20;68.50
21502;DHT22;27639;48.674;9.242;2023-05-10T03:51:57;17.20;68.40
21502;DHT22;27639;48.674;9.242;2023-05-10T03:54:23;17.20;68.30
21502;DHT22;27639;48.674;9.242;2023-05-10T03:56:48;17.20;68.40
21502;DHT22;27639;48.674;9.242;2023-05-10T03:59:14;17.30;68.40
21502;DHT22;27639;48.674;9.242;2023-05-10T04:01:40;17.30;68.50
21502;DHT22;27639;48.674;9.242;2023-05-10T04:04:05;17.30;68.30
21502;DHT22;27639;48.674;9.242;2023-05-10T04:06:31;17.20;68.40
21502;DHT22;27639;48.674;9.242;2023-05-10T04:08:57;17.20;68.30
21502;DHT22;27639;48.674;9.242;2023-05-10T04:11:25;17.20;68.20
21502;DHT22;27639;48.674;9.242;2023-05-10T04:13:50;17.10;68.00
21502;DHT22;27639;48.674;9.242;2023-05-10T04:16:16;17.00;67.90
21502;DHT22;27639;48.674;9.242;2023-05-10T04:18:42;17.00;68.10
21502;DHT22;27639;48.674;9.242;2023-05-10T04:21:13;17.00;68.20
21502;DHT22;27639;48.674;9.242;2023-05-10T04:23:39;16.90;68.10
21502;DHT22;27639;48.674;9.242;2023-05-10T04:26:05;16.90;68.40
21502;DHT22;27639;48.674;9.242;2023-05-10T04:28:31;16.90;68.50
21502;DHT22;27639;48.674;9.242;2023-05-10T04:31:03;16.80;68.50
21502;DHT22;27639;48.674;9.242;2023-05-10T04:33:29;16.80;68.40
21502;DHT22;27639;48.674;9.242;2023-05-10T04:35:55;16.80;68.50
21502;DHT22;27639;48.674;9.242;2023-05-10T04:38:21;16.80;68.60
21502;DHT22;27639;48.674;9.242;2023-05-10T04:40:47;16.80;68.70
21502;DHT22;27639;48.674;9.242;2023-05-10T04:43:12;16.90;69.00
21502;DHT22;27639;48.674;9.242;2023-05-10T04:45:38;16.90;68.90
21502;DHT22;27639;48.674;9.242;2023-05-10T04:48:04;16.90;69.00
21502;DHT22;27639;48.674;9.242;2023-05-10T04:50:29;16.90;69.00
21502;DHT22;27639;48.674;9.242;2023-05-10T04:52:55;16.90;68.80
21502;DHT22;27639;48.674;9.242;2023-05-10T04:55:21;16.90;68.60
21502;DHT22;27639;48.674;9.242;2023-05-10T04:57:46;16.90;68.50
21502;DHT22;27639;48.674;9.242;2023-05-10T05:00:12;16.90;68.60
21502;DHT22;27639;48.674;9.242;2023-05-10T05:02:38;16.80;68.50
21502;DHT22;27639;48.674;9.242;2023-05-10T05:05:04;16.80;68.50
21502;DHT22;27639;48.674;9.242;2023-05-10T05:07:30;16.70;68.60
21502;DHT22;27639;48.674;9.242;2023-05-10T05:09:56;16.70;68.70
21502;DHT22;27639;48.674;9.242;2023-05-10T05:12:21;16.70;68.80
21502;DHT22;27639;48.674;9.242;2023-05-10T05:14:47;16.70;69.10
21502;DHT22;27639;48.674;9.242;2023-05-10T05:17:12;16.80;69.20
21502;DHT22;27639;48.674;9.242;2023-05-10T05:19:38;16.80;69.40
21502;DHT22;27639;48.674;9.242;2023-05-10T05:22:06;16.80;69.10
21502;DHT22;27639;48.674;9.242;2023-05-10T05:24:35;16.80;68.90
21502;DHT22;27639;48.674;9.242;2023-05-10T05:27:03;16.80;68.80
21502;DHT22;27639;48.674;9.242;2023-05-10T05:29:28;16.80;69.00
21502;DHT22;27639;48.674;9.242;2023-05-10T05:31:54;16.80;69.00
21502;DHT22;27639;48.674;9.242;2023-05-10T05:34:19;16.70;68.90
21502;DHT22;27639;48.674;9.242;2023-05-10T05:36:45;16.80;69.10
21502;DHT22;27639;48.674;9.242;2023-05-10T05:39:11;16.80;69.00
21502;DHT22;27639;48.674;9.242;2023-05-10T05:41:37;16.80;69.10
21502;DHT22;27639;48.674;9.242;2023-05-10T05:44:02;16.80;69.10
21502;DHT22;27639;48.674;9.242;2023-05-10T05:46:28;16.90;69.00
21502;DHT22;27639;48.674;9.242;2023-05-10T05:48:53;16.90;68.90
21502;DHT22;27639;48.674;9.242;2023-05-10T05:51:19;16.90;68.60
21502;DHT22;27639;48.674;9.242;2023-05-10T05:53:45;16.90;68.70
21502;DHT22;27639;48.674;9.242;2023-05-10T05:56:10;16.80;68.60
21502;DHT22;27639;48.674;9.242;2023-05-10T05:58:36;16.90;68.70
21502;DHT22;27639;48.674;9.242;2023-05-10T06:01:02;17.00;69.00
21502;DHT22;27639;48.674;9.242;2023-05-10T06:03:27;17.00;69.20
21502;DHT22;27639;48.674;9.242;2023-05-10T06:05:53;17.00;69.20
21502;DHT22;27639;48.674;9.242;2023-05-10T06:08:18;17.10;69.20
21502;DHT22;27639;48.674;9.242;2023-05-10T06:10:44;17.10;69.20
21502;DHT22;27639;48.674;9.242;2023-05-10T06:13:10;17.20;69.40
21502;DHT22;27639;48.674;9.242;2023-05-10T06:15:36;17.20;69.20
21502;DHT22;27639;48.674;9.242;2023-05-10T06:18:02;17.30;69.20
21502;DHT22;27639;48.674;9.242;2023-05-10T06:20:27;17.30;69.10
21502;DHT22;27639;48.674;9.242;2023-05-10T06:22:53;17.40;69.10
21502;DHT22;27639;48.674;9.242;2023-05-10T06:25:19;17.40;68.90
21502;DHT22;27639;48.674;9.242;2023-05-10T06:27:44;17.30;68.60
21502;DHT22;27639;48.674;9.242;2023-05-10T06:30:10;17.30;68.70
21502;DHT22;27639;48.674;9.242;2023-05-10T06:32:36;17.30;68.90
21502;DHT22;27639;48.674;9.242;2023-05-10T06:35:02;17.30;68.80
21502;DHT22;27639;48.674;9.242;2023-05-10T06:37:27;17.40;68.90
21502;DHT22;27639;48.674;9.242;2023-05-10T06:39:53;17.40;68.90
21502;DHT22;27639;48.674;9.242;2023-05-10T06:42:19;17.50;68.90
21502;DHT22;27639;48.674;9.242;2023-05-10T06:44:44;17.50;68.70
21502;DHT22;27639;48.674;9.242;2023-05-10T06:47:10;17.60;68.50
21502;DHT22;27639;48.674;9.242;2023-05-10T06:49:36;17.50;68.30
21502;DHT22;27639;48.674;9.242;2023-05-10T06:52:02;17.50;68.20
21502;DHT22;27639;48.674;9.242;2023-05-10T06:54:27;17.50;68.40
21502;DHT22;27639;48.674;9.242;2023-05-10T06:56:53;17.60;68.60
21502;DHT22;27639;48.674;9.242;2023-05-10T06:59:19;17.60;68.60
21502;DHT22;27639;48.674;9.242;2023-05-10T07:01:44;17.60;68.10
21502;DHT22;27639;48.674;9.242;2023-05-10T07:04:10;17.60;68.00
21502;DHT22;27639;48.674;9.242;2023-05-10T07:06:36;17.60;68.00
21502;DHT22;27639;48.674;9.242;2023-05-10T07:09:01;17.60;68.10
21502;DHT22;27639;48.674;9.242;2023-05-10T07:11:27;17.60;67.80
21502;DHT22;27639;48.674;9.242;2023-05-10T07:13:53;17.50;67.70
21502;DHT22;27639;48.674;9.242;2023-05-10T07:16:18;17.60;67.90
21502;DHT22;27639;48.674;9.242;2023-05-10T07:18:44;17.70;68.30
21502;DHT22;27639;48.674;9.242;2023-05-10T07:21:09;17.70;68.30
21502;DHT22;27639;48.674;9.242;2023-05-10T07:23:35;17.70;68.30
21502;DHT22;27639;48.674;9.242;2023-05-10T07:26:01;17.80;68.00
21502;DHT22;27639;48.674;9.242;2023-05-10T07:28:27;17.90;68.00
21502;DHT22;27639;48.674;9.242;2023-05-10T07:30:53;17.80;67.40
21502;DHT22;27639;48.674;9.242;2023-05-10T07:33:18;17.90;67.50
21502;DHT22;27639;48.674;9.242;2023-05-10T07:35:44;17.80;67.10
21502;DHT22;27639;48.674;9.242;2023-05-10T07:38:10;17.80;67.40
21502;DHT22;27639;48.674;9.242;2023-05-10T07:40:39;17.80;67.60
21502;DHT22;27639;48.674;9.242;2023-05-10T07:43:04;17.90;67.30
21502;DHT22;27639;48.674;9.242;2023-05-10T07:45:30;17.90;67.10
21502;DHT22;27639;48.674;9.242;2023-05-10T07:47:56;17.90;66.60
21502;DHT22;27639;48.674;9.242;2023-05-10T07:50:21;17.90;66.80
21502;DHT22;27639;48.674;9.242;2023-05-10T07:52:47;17.90;66.80
21502;DHT22;27639;48.674;9.242;2023-05-10T07:55:13;17.90;66.60
21502;DHT22;27639;48.674;9.242;2023-05-10T07:57:39;17.90;66.30
21502;DHT22;27639;48.674;9.242;2023-05-10T08:00:05;17.90;66.40
21502;DHT22;27639;48.674;9.242;2023-05-10T08:02:32;17.90;65.90
21502;DHT22;27639;48.674;9.242;2023-05-10T08:04:57;17.90;65.80
21502;DHT22;27639;48.674;9.242;2023-05-10T08:07:24;17.90;65.60
21502;DHT22;27639;48.674;9.242;2023-05-10T08:09:50;17.90;65.40
21502;DHT22;27639;48.674;9.242;2023-05-10T08:12:16;17.80;65.30
21502;DHT22;27639;48.674;9.242;2023-05-10T08:14:41;17.80;65.50
21502;DHT22;27639;48.674;9.242;2023-05-10T08:17:07;17.90;65.70
21502;DHT22;27639;48.674;9.242;2023-05-10T08:19:32;17.90;65.40
21502;DHT22;27639;48.674;9.242;2023-05-10T08:21:58;17.90;65.70
21502;DHT22;27639;48.674;9.242;2023-05-10T08:24:23;18.00;66.00
21502;DHT22;27639;48.674;9.242;2023-05-10T08:26:49;18.10;65.80
21502;DHT22;27639;48.674;9.242;2023-05-10T08:29:15;18.10;65.70
21502;DHT22;27639;48.674;9.242;2023-05-10T08:31:41;18.10;65.20
21502;DHT22;27639;48.674;9.242;2023-05-10T08:34:06;18.20;65.30
21502;DHT22;27639;48.674;9.242;2023-05-10T08:36:32;18.30;65.40
21502;DHT22;27639;48.674;9.242;2023-05-10T08:38:58;18.30;65.10
21502;DHT22;27639;48.674;9.242;2023-05-10T08:41:24;18.40;65.20
21502;DHT22;27639;48.674;9.242;2023-05-10T08:43:51;18.50;65.10
21502;DHT22;27639;48.674;9.242;2023-05-10T08:46:18;18.50;64.40
21502;DHT22;27639;48.674;9.242;2023-05-10T08:48:45;18.50;64.10
21502;DHT22;27639;48.674;9.242;2023-05-10T08:51:17;18.50;63.70
21502;DHT22;27639;48.674;9.242;2023-05-10T08:53:44;18.60;63.80
21502;DHT22;27639;48.674;9.242;2023-05-10T08:56:09;18.70;63.90
21502;DHT22;27639;48.674;9.242;2023-05-10T08:58:36;18.70;63.50
21502;DHT22;27639;48.674;9.242;2023-05-10T09:01:02;18.80;63.40
21502;DHT22;27639;48.674;9.242;2023-05-10T09:03:28;18.80;63.30
21502;DHT22;27639;48.674;9.242;2023-05-10T09:05:54;18.70;62.70
21502;DHT22;27639;48.674;9.242;2023-05-10T09:08:22;18.80;62.40
21502;DHT22;27639;48.674;9.242;2023-05-10T09:10:50;18.70;62.00
21502;DHT22;27639;48.674;9.242;2023-05-10T09:13:17;18.80;62.60
21502;DHT22;27639;48.674;9.242;2023-05-10T09:15:44;18.70;61.90
21502;DHT22;27639;48.674;9.242;2023-05-10T09:18:10;18.70;61.60
21502;DHT22;27639;48.674;9.242;2023-05-10T09:20:35;18.70;61.20
21502;DHT22;27639;48.674;9.242;2023-05-10T09:23:01;18.70;61.50
21502;DHT22;27639;48.674;9.242;2023-05-10T09:25:27;18.80;61.30
21502;DHT22;27639;48.674;9.242;2023-05-10T09:27:52;18.80;60.30
21502;DHT22;27639;48.674;9.242;2023-05-10T09:30:29;18.80;60.90
21502;DHT22;27639;48.674;9.242;2023-05-10T09:32:55;18.90;61.40
21502;DHT22;27639;48.674;9.242;2023-05-10T09:35:23;19.00;61.20
21502;DHT22;27639;48.674;9.242;2023-05-10T09:37:51;19.10;60.70
21502;DHT22;27639;48.674;9.242;2023-05-10T09:40:19;19.10;60.70
21502;DHT22;27639;48.674;9.242;2023-05-10T09:42:55;19.10;60.40
21502;DHT22;27639;48.674;9.242;2023-05-10T09:45:22;19.10;60.10
21502;DHT22;27639;48.674;9.242;2023-05-10T09:47:48;19.30;59.90
21502;DHT22;27639;48.674;9.242;2023-05-10T09:50:13;19.30;59.40
21502;DHT22;27639;48.674;9.242;2023-05-10T09:55:15;19.30;59.00
21502;DHT22;27639;48.674;9.242;2023-05-10T09:57:41;19.40;59.10
21502;DHT22;27639;48.674;9.242;2023-05-10T10:00:07;19.40;58.90
21502;DHT22;27639;48.674;9.242;2023-05-10T10:02:34;19.50;58.80
21502;DHT22;27639;48.674;9.242;2023-05-10T10:05:03;19.50;58.90
21502;DHT22;27639;48.674;9.242;2023-05-10T10:07:29;19.50;58.40
21502;DHT22;27639;48.674;9.242;2023-05-10T10:09:55;19.50;58.30
21502;DHT22;27639;48.674;9.242;2023-05-10T10:12:20;19.50;58.00
21502;DHT22;27639;48.674;9.242;2023-05-10T10:14:47;19.50;58.00
21502;DHT22;27639;48.674;9.242;2023-05-10T10:17:13;19.60;57.90
21502;DHT22;27639;48.674;9.242;2023-05-10T10:19:39;19.60;57.80
21502;DHT22;27639;48.674;9.242;2023-05-10T10:22:05;19.60;58.00
21502;DHT22;27639;48.674;9.242;2023-05-10T10:24:31;19.60;57.70
21502;DHT22;27639;48.674;9.242;2023-05-10T10:27:09;19.60;57.40
21502;DHT22;27639;48.674;9.242;2023-05-10T10:29:52;19.60;57.20
21502;DHT22;27639;48.674;9.242;2023-05-10T10:35:22;19.60;56.60
21502;DHT22;27639;48.674;9.242;2023-05-10T10:37:50;19.70;57.30
21502;DHT22;27639;48.674;9.242;2023-05-10T10:42:51;19.80;56.60
21502;DHT22;27639;48.674;9.242;2023-05-10T10:45:17;19.90;56.90
21502;DHT22;27639;48.674;9.242;2023-05-10T10:47:43;20.00;56.20
21502;DHT22;27639;48.674;9.242;2023-05-10T10:50:10;20.10;56.00
21502;DHT22;27639;48.674;9.242;2023-05-10T10:52:42;20.20;55.70
21502;DHT22;27639;48.674;9.242;2023-05-10T10:55:19;20.20;55.70
21502;DHT22;27639;48.674;9.242;2023-05-10T10:57:55;20.30;55.60
21502;DHT22;27639;48.674;9.242;2023-05-10T11:00:36;20.30;55.60
21502;DHT22;27639;48.674;9.242;2023-05-10T11:03:08;20.30;55.00
21502;DHT22;27639;48.674;9.242;2023-05-10T11:05:46;20.30;55.00
21502;DHT22;27639;48.674;9.242;2023-05-10T11:08:28;20.30;54.70
21502;DHT22;27639;48.674;9.242;2023-05-10T11:11:03;20.30;54.50
21502;DHT22;27639;48.674;9.242;2023-05-10T11:13:44;20.20;54.00
21502;DHT22;27639;48.674;9.242;2023-05-10T11:16:14;20.10;53.60
21502;DHT22;27639;48.674;9.242;2023-05-10T11:18:40;19.90;52.20
21502;DHT22;27639;48.674;9.242;2023-05-10T11:21:09;19.70;51.60
21502;DHT22;27639;48.674;9.242;2023-05-10T11:23:51;19.60;51.40
21502;DHT22;27639;48.674;9.242;2023-05-10T11:26:17;19.40;51.00
21502;DHT22;27639;48.674;9.242;2023-05-10T11:28:48;19.20;51.70
21502;DHT22;27639;48.674;9.242;2023-05-10T11:31:15;19.10;52.10
21502;DHT22;27639;48.674;9.242;2023-05-10T11:36:20;18.90;53.40
21502;DHT22;27639;48.674;9.242;2023-05-10T11:38:46;18.70;53.90
21502;DHT22;27639;48.674;9.242;2023-05-10T11:41:12;18.60;54.80
21502;DHT22;27639;48.674;9.242;2023-05-10T11:43:39;18.40;55.30
21502;DHT22;27639;48.674;9.242;2023-05-10T11:46:09;18.30;55.70
21502;DHT22;27639;48.674;9.242;2023-05-10T11:48:36;18.10;56.20
21502;DHT22;27639;48.674;9.242;2023-05-10T11:51:01;18.10;56.80
21502;DHT22;27639;48.674;9.242;2023-05-10T11:53:29;18.10;56.90
21502;DHT22;27639;48.674;9.242;2023-05-10T11:55:55;18.10;57.60
21502;DHT22;27639;48.674;9.242;2023-05-10T11:58:21;18.00;57.90
21502;DHT22;27639;48.674;9.242;2023-05-10T12:00:48;18.00;58.30
21502;DHT22;27639;48.674;9.242;2023-05-10T12:03:14;18.00;58.40
21502;DHT22;27639;48.674;9.242;2023-05-10T12:05:40;18.00;59.40
21502;DHT22;27639;48.674;9.242;2023-05-10T12:08:21;18.00;59.00
21502;DHT22;27639;48.674;9.242;2023-05-10T12:10:47;18.00;59.00
21502;DHT22;27639;48.674;9.242;2023-05-10T12:13:13;18.10;59.30
21502;DHT22;27639;48.674;9.242;2023-05-10T12:15:39;18.10;59.30
21502;DHT22;27639;48.674;9.242;2023-05-10T12:18:05;18.10;59.40
21502;DHT22;27639;48.674;9.242;2023-05-10T12:20:33;18.20;59.40
21502;DHT22;27639;48.674;9.242;2023-05-10T12:22:59;18.10;59.00
21502;DHT22;27639;48.674;9.242;2023-05-10T12:25:32;18.20;59.30
21502;DHT22;27639;48.674;9.242;2023-05-10T12:27:59;18.30;59.40
21502;DHT22;27639;48.674;9.242;2023-05-10T12:30:33;18.30;59.00
21502;DHT22;27639;48.674;9.242;2023-05-10T12:33:02;18.30;58.60
21502;DHT22;27639;48.674;9.242;2023-05-10T12:35:32;18.40;58.60
21502;DHT22;27639;48.674;9.242;2023-05-10T12:37:58;18.40;58.50
21502;DHT22;27639;48.674;9.242;2023-05-10T12:40:23;18.40;58.10
21502;DHT22;27639;48.674;9.242;2023-05-10T12:42:49;18.40;57.90
21502;DHT22;27639;48.674;9.242;2023-05-10T12:45:15;18.40;57.80
21502;DHT22;27639;48.674;9.242;2023-05-10T12:47:42;18.40;57.10
21502;DHT22;27639;48.674;9.242;2023-05-10T12:50:08;18.40;57.10
21502;DHT22;27639;48.674;9.242;2023-05-10T12:52:34;18.40;57.10
21502;DHT22;27639;48.674;9.242;2023-05-10T12:55:00;18.50;57.20
21502;DHT22;27639;48.674;9.242;2023-05-10T12:57:26;18.50;57.10
21502;DHT22;27639;48.674;9.242;2023-05-10T12:59:52;18.60;56.90
21502;DHT22;27639;48.674;9.242;2023-05-10T13:02:17;18.60;57.10
21502;DHT22;27639;48.674;9.242;2023-05-10T13:04:44;18.50;57.10
21502;DHT22;27639;48.674;9.242;2023-05-10T13:07:10;18.60;57.10
21502;DHT22;27639;48.674;9.242;2023-05-10T13:09:36;18.60;56.90
21502;DHT22;27639;48.674;9.242;2023-05-10T13:12:02;18.60;56.70
21502;DHT22;27639;48.674;9.242;2023-05-10T13:14:27;18.60;56.20
21502;DHT22;27639;48.674;9.242;2023-05-10T13:16:53;18.60;56.00
21502;DHT22;27639;48.674;9.242;2023-05-10T13:19:19;18.60;56.30
21502;DHT22;27639;48.674;9.242;2023-05-10T13:21:45;18.70;56.40
21502;DHT22;27639;48.674;9.242;2023-05-10T13:24:11;18.80;56.50
21502;DHT22;27639;48.674;9.242;2023-05-10T13:26:39;18.90;56.40
21502;DHT22;27639;48.674;9.242;2023-05-10T13:29:05;18.90;55.90
21502;DHT22;27639;48.674;9.242;2023-05-10T13:31:31;19.00;55.50
21502;DHT22;27639;48.674;9.242;2023-05-10T13:33:56;19.00;55.30
21502;DHT22;27639;48.674;9.242;2023-05-10T13:36:22;19.10;55.00
21502;DHT22;27639;48.674;9.242;2023-05-10T13:38:48;19.10;55.30
21502;DHT22;27639;48.674;9.242;2023-05-10T13:41:14;19.20;55.10
21502;DHT22;27639;48.674;9.242;2023-05-10T13:43:39;19.40;54.90
21502;DHT22;27639;48.674;9.242;2023-05-10T13:46:05;19.40;54.20
21502;DHT22;27639;48.674;9.242;2023-05-10T13:48:31;19.40;53.90
21502;DHT22;27639;48.674;9.242;2023-05-10T13:50:56;19.50;53.40
21502;DHT22;27639;48.674;9.242;2023-05-10T13:53:22;19.50;52.60
21502;DHT22;27639;48.674;9.242;2023-05-10T13:55:48;19.60;52.60
21502;DHT22;27639;48.674;9.242;2023-05-10T13:58:14;19.70;52.40
21502;DHT22;27639;48.674;9.242;2023-05-10T14:00:39;19.70;51.90
21502;DHT22;27639;48.674;9.242;2023-05-10T14:03:05;19.60;51.60
21502;DHT22;27639;48.674;9.242;2023-05-10T14:05:32;19.60;51.40
21502;DHT22;27639;48.674;9.242;2023-05-10T14:07:58;19.60;51.00
21502;DHT22;27639;48.674;9.242;2023-05-10T14:10:23;19.60;51.30
21502;DHT22;27639;48.674;9.242;2023-05-10T14:12:49;19.50;50.80
21502;DHT22;27639;48.674;9.242;2023-05-10T14:15:15;19.50;50.50
21502;DHT22;27639;48.674;9.242;2023-05-10T14:17:41;19.50;50.50
21502;DHT22;27639;48.674;9.242;2023-05-10T14:20:07;19.50;50.60
21502;DHT22;27639;48.674;9.242;2023-05-10T14:22:32;19.50;50.90
21502;DHT22;27639;48.674;9.242;2023-05-10T14:24:58;19.50;51.00
21502;DHT22;27639;48.674;9.242;2023-05-10T14:27:23;19.50;51.00
21502;DHT22;27639;48.674;9.242;2023-05-10T14:29:49;19.60;50.90
21502;DHT22;27639;48.674;9.242;2023-05-10T14:32:15;19.60;51.10
21502;DHT22;27639;48.674;9.242;2023-05-10T14:34:40;19.70;51.10
21502;DHT22;27639;48.674;9.242;2023-05-10T14:37:06;19.70;50.70
21502;DHT22;27639;48.674;9.242;2023-05-10T14:39:32;19.70;50.90
21502;DHT22;27639;48.674;9.242;2023-05-10T14:41:58;19.80;50.80
21502;DHT22;27639;48.674;9.242;2023-05-10T14:44:24;19.80;50.80
21502;DHT22;27639;48.674;9.242;2023-05-10T14:46:50;19.90;50.80
21502;DHT22;27639;48.674;9.242;2023-05-10T14:49:16;19.90;50.60
21502;DHT22;27639;48.674;9.242;2023-05-10T14:51:41;19.90;50.70
21502;DHT22;27639;48.674;9.242;2023-05-10T14:54:07;19.90;50.90
21502;DHT22;27639;48.674;9.242;2023-05-10T14:56:32;20.00;50.80
21502;DHT22;27639;48.674;9.242;2023-05-10T14:58:58;20.00;50.90
21502;DHT22;27639;48.674;9.242;2023-05-10T15:01:24;20.00;50.90
21502;DHT22;27639;48.674;9.242;2023-05-10T15:03:50;20.10;51.00
21502;DHT22;27639;48.674;9.242;2023-05-10T15:06:16;20.00;50.40
21502;DHT22;27639;48.674;9.242;2023-05-10T15:08:41;20.00;50.80
21502;DHT22;27639;48.674;9.242;2023-05-10T15:11:07;20.10;51.10
21502;DHT22;27639;48.674;9.242;2023-05-10T15:13:32;20.10;51.00
21502;DHT22;27639;48.674;9.242;2023-05-10T15:15:58;20.10;51.10
21502;DHT22;27639;48.674;9.242;2023-05-10T15:18:24;20.10;50.70
21502;DHT22;27639;48.674;9.242;2023-05-10T15:20:49;20.10;50.00
21502;DHT22;27639;48.674;9.242;2023-05-10T15:23:15;20.00;49.90
21502;DHT22;27639;48.674;9.242;2023-05-10T15:25:40;20.00;50.50
21502;DHT22;27639;48.674;9.242;2023-05-10T15:28:06;20.00;50.20
21502;DHT22;27639;48.674;9.242;2023-05-10T15:30:32;20.10;50.60
21502;DHT22;27639;48.674;9.242;2023-05-10T15:32:57;20.10;50.50
21502;DHT22;27639;48.674;9.242;2023-05-10T15:35:23;20.10;49.60
21502;DHT22;27639;48.674;9.242;2023-05-10T15:37:49;20.00;49.80
21502;DHT22;27639;48.674;9.242;2023-05-10T15:40:15;20.00;49.70
21502;DHT22;27639;48.674;9.242;2023-05-10T15:42:40;20.00;50.10
21502;DHT22;27639;48.674;9.242;2023-05-10T15:45:06;20.00;49.80
21502;DHT22;27639;48.674;9.242;2023-05-10T15:47:32;20.00;49.50
21502;DHT22;27639;48.674;9.242;2023-05-10T15:49:58;20.00;49.70
21502;DHT22;27639;48.674;9.242;2023-05-10T15:52:24;20.10;49.90
21502;DHT22;27639;48.674;9.242;2023-05-10T15:54:50;20.10;49.80
21502;DHT22;27639;48.674;9.242;2023-05-10T15:57:15;20.20;50.10